createdAt,value
2023-01-30T00:00:55.258Z,4.76
2023-01-30T00:03:24.024Z,4.18
2023-01-30T00:05:51.784Z,4.48
2023-01-30T00:08:19.730Z,4.84
2023-01-30T00:10:49.160Z,3.94
2023-01-30T00:13:17.118Z,4.74
2023-01-30T00:15:45.052Z,4.55
2023-01-30T00:18:12.476Z,4.13
2023-01-30T00:20:39.940Z,3.46
2023-01-30T00:23:07.375Z,4.72
2023-01-30T00:25:35.060Z,5.28
2023-01-30T00:28:04.007Z,4.94
2023-01-30T00:30:31.629Z,5.20
2023-01-30T00:33:00.258Z,4.53
2023-01-30T00:35:29.325Z,4.80
2023-01-30T00:37:58.149Z,3.98
2023-01-30T00:40:26.882Z,4.67
2023-01-30T00:46:04.139Z,4.18
2023-01-30T00:48:32.372Z,4.40
2023-01-30T00:50:59.842Z,5.15
2023-01-30T00:53:27.298Z,5.12
2023-01-30T00:55:55.817Z,5.02
2023-01-30T00:58:24.795Z,5.58
2023-01-30T01:00:53.811Z,5.20
2023-01-30T01:03:21.332Z,3.91
2023-01-30T01:05:49.653Z,4.47
2023-01-30T01:08:17.550Z,4.39
2023-01-30T01:10:45.079Z,4.75
2023-01-30T01:13:12.533Z,5.08
2023-01-30T01:15:39.994Z,4.31
2023-01-30T01:18:08.787Z,4.79
2023-01-30T01:20:36.198Z,4.26
2023-01-30T01:23:03.724Z,4.55
2023-01-30T01:25:31.185Z,4.96
2023-01-30T01:27:58.646Z,5.20
2023-01-30T01:30:26.126Z,4.79
2023-01-30T01:32:53.604Z,4.26
2023-01-30T01:35:22.364Z,4.30
2023-01-30T01:37:53.650Z,5.19
2023-01-30T01:40:40.337Z,5.18
2023-01-30T01:43:16.813Z,4.83
2023-01-30T01:45:45.453Z,4.98
2023-01-30T01:48:17.204Z,4.90
2023-01-30T01:50:50.676Z,5.05
2023-01-30T01:53:22.120Z,4.93
2023-01-30T01:55:53.037Z,4.37
2023-01-30T01:58:26.625Z,4.27
2023-01-30T02:00:57.885Z,4.83
2023-01-30T02:03:27.912Z,4.94
2023-01-30T02:05:59.410Z,4.74
2023-01-30T02:08:31.322Z,4.47
2023-01-30T02:11:04.340Z,5.44
2023-01-30T02:13:32.473Z,5.25
2023-01-30T02:16:05.349Z,4.58
2023-01-30T02:18:35.078Z,4.14
2023-01-30T02:21:25.935Z,4.04
2023-01-30T02:24:17.927Z,4.18
2023-01-30T02:26:55.479Z,4.70
2023-01-30T02:30:19.476Z,4.35
2023-01-30T02:32:57.558Z,4.02
2023-01-30T02:35:30.669Z,4.32
2023-01-30T02:38:13.778Z,4.62
2023-01-30T02:40:49.758Z,4.17
2023-01-30T02:43:26.154Z,4.18
2023-01-30T02:46:01.590Z,4.36
2023-01-30T02:48:36.938Z,4.09
2023-01-30T02:51:07.570Z,4.13
2023-01-30T02:53:35.758Z,4.57
2023-01-30T02:56:04.648Z,4.60
2023-01-30T02:58:38.098Z,4.75
2023-01-30T03:01:21.812Z,4.70
2023-01-30T03:04:08.272Z,4.42
2023-01-30T03:06:50.705Z,3.95
2023-01-30T03:09:26.600Z,4.08
2023-01-30T03:12:03.922Z,4.86
2023-01-30T03:14:38.818Z,3.68
2023-01-30T03:17:09.926Z,3.91
2023-01-30T03:19:39.149Z,3.93
2023-01-30T03:22:06.613Z,4.28
2023-01-30T03:24:34.426Z,4.17
2023-01-30T03:27:06.780Z,5.00
2023-01-30T03:29:34.558Z,4.57
2023-01-30T03:32:01.995Z,3.82
2023-01-30T03:34:29.570Z,4.66
2023-01-30T03:36:58.521Z,4.87
2023-01-30T03:39:26.400Z,4.91
2023-01-30T03:41:54.976Z,4.90
2023-01-30T03:44:22.530Z,5.25
2023-01-30T03:46:49.985Z,4.91
2023-01-30T03:49:18.062Z,4.74
2023-01-30T03:51:45.723Z,5.00
2023-01-30T03:54:14.555Z,4.83
2023-01-30T03:56:42.001Z,5.11
2023-01-30T03:59:09.613Z,5.60
2023-01-30T04:01:37.163Z,5.52
2023-01-30T04:04:04.777Z,5.19
2023-01-30T04:06:32.269Z,4.42
2023-01-30T04:08:59.760Z,4.82
2023-01-30T04:11:28.684Z,4.87
2023-01-30T04:13:56.177Z,4.42
2023-01-30T04:16:26.023Z,4.62
2023-01-30T04:18:54.046Z,4.16
2023-01-30T04:21:21.976Z,4.81
2023-01-30T04:23:49.564Z,4.64
2023-01-30T04:26:17.220Z,4.94
2023-01-30T04:28:45.999Z,5.22
2023-01-30T04:31:13.425Z,5.38
2023-01-30T04:33:41.017Z,5.73
2023-01-30T04:36:10.453Z,4.81
2023-01-30T04:38:38.290Z,4.53
2023-01-30T04:41:06.450Z,5.16
2023-01-30T04:43:34.001Z,5.14
2023-01-30T04:46:02.794Z,4.91
2023-01-30T04:48:30.229Z,4.57
2023-01-30T04:50:58.262Z,4.50
2023-01-30T04:53:26.229Z,5.05
2023-01-30T04:55:53.680Z,5.19
2023-01-30T04:58:21.187Z,5.16
2023-01-30T05:00:49.896Z,5.00
2023-01-30T05:03:18.814Z,5.24
2023-01-30T05:05:48.153Z,4.88
2023-01-30T05:08:17.102Z,4.85
2023-01-30T05:10:44.602Z,4.14
2023-01-30T05:13:12.066Z,4.17
2023-01-30T05:15:40.395Z,4.67
2023-01-30T05:18:07.797Z,4.29
2023-01-30T05:20:36.534Z,4.47
2023-01-30T05:23:03.939Z,4.69
2023-01-30T05:25:31.505Z,5.19
2023-01-30T05:27:59.013Z,5.20
2023-01-30T05:30:26.455Z,5.07
2023-01-30T05:32:53.913Z,4.46
2023-01-30T05:35:21.430Z,5.17
2023-01-30T05:37:52.747Z,4.50
2023-01-30T05:40:20.307Z,4.50
2023-01-30T05:42:47.752Z,5.20
2023-01-30T05:45:15.478Z,5.15
2023-01-30T05:47:42.891Z,5.08
2023-01-30T05:50:12.018Z,4.57
2023-01-30T05:52:39.419Z,5.04
2023-01-30T05:55:09.616Z,5.48
2023-01-30T05:57:37.007Z,5.18
2023-01-30T06:00:05.301Z,5.30
2023-01-30T06:02:32.781Z,5.08
2023-01-30T06:05:00.209Z,5.19
2023-01-30T06:07:27.598Z,5.27
2023-01-30T06:09:55.014Z,4.88
2023-01-30T06:12:23.762Z,4.99
2023-01-30T06:14:51.172Z,4.73
2023-01-30T06:17:18.621Z,5.35
2023-01-30T06:19:46.064Z,5.05
2023-01-30T06:22:13.437Z,5.14
2023-01-30T06:24:40.825Z,4.86
2023-01-30T06:27:08.208Z,5.31
2023-01-30T06:29:36.956Z,5.33
2023-01-30T06:32:04.556Z,5.22
2023-01-30T06:34:31.963Z,5.45
2023-01-30T06:36:59.405Z,5.80
2023-01-30T06:39:26.805Z,5.15
2023-01-30T06:41:54.223Z,5.03
2023-01-30T06:44:21.615Z,4.86
2023-01-30T06:46:50.392Z,5.58
2023-01-30T06:49:17.766Z,5.32
2023-01-30T06:51:45.208Z,5.08
2023-01-30T06:54:12.612Z,5.25
2023-01-30T06:56:40.014Z,5.81
2023-01-30T06:59:07.523Z,5.26
2023-01-30T07:01:34.975Z,5.07
2023-01-30T07:04:03.725Z,5.09
2023-01-30T07:06:31.185Z,5.06
2023-01-30T07:08:58.865Z,5.30
2023-01-30T07:11:26.329Z,5.67
2023-01-30T07:13:53.763Z,4.96
2023-01-30T07:16:23.957Z,5.96
2023-01-30T07:18:51.357Z,5.28
2023-01-30T07:21:20.070Z,5.74
2023-01-30T07:23:48.117Z,5.16
2023-01-30T07:26:15.563Z,5.80
2023-01-30T07:28:43.004Z,5.53
2023-01-30T07:31:10.453Z,6.28
2023-01-30T07:33:37.929Z,5.59
2023-01-30T07:36:05.965Z,5.55
2023-01-30T07:38:34.821Z,5.08
2023-01-30T07:41:02.346Z,5.89
2023-01-30T07:43:29.724Z,6.15
2023-01-30T07:45:57.134Z,5.79
2023-01-30T07:48:24.559Z,5.63
2023-01-30T07:50:56.368Z,5.52
2023-01-30T07:53:24.070Z,5.80
2023-01-30T07:55:52.891Z,5.04
2023-01-30T07:58:20.326Z,5.39
2023-01-30T08:00:47.877Z,5.51
2023-01-30T08:03:17.918Z,6.18
2023-01-30T08:05:46.741Z,6.52
2023-01-30T08:08:14.549Z,6.21
2023-01-30T08:10:42.063Z,6.59
2023-01-30T08:13:11.108Z,6.57
2023-01-30T08:15:38.606Z,6.53
2023-01-30T08:18:07.349Z,6.04
2023-01-30T08:20:35.141Z,6.06
2023-01-30T08:23:02.916Z,5.62
2023-01-30T08:25:30.780Z,6.33
2023-01-30T08:27:59.889Z,6.66
2023-01-30T08:30:30.337Z,6.63
2023-01-30T08:32:58.406Z,5.89
2023-01-30T08:35:25.935Z,6.57
2023-01-30T08:37:53.345Z,6.65
2023-01-30T08:40:21.092Z,6.24
2023-01-30T08:42:48.650Z,6.03
2023-01-30T08:45:16.105Z,6.35
2023-01-30T08:47:44.860Z,6.83
2023-01-30T08:50:12.517Z,6.73
2023-01-30T08:52:40.108Z,6.41
2023-01-30T08:55:08.277Z,6.71
2023-01-30T08:57:35.715Z,6.76
2023-01-30T09:00:03.791Z,6.49
2023-01-30T09:02:31.370Z,6.55
2023-01-30T09:05:00.230Z,6.96
2023-01-30T09:07:28.741Z,6.83
2023-01-30T09:09:56.608Z,6.77
2023-01-30T09:12:24.500Z,7.11
2023-01-30T09:14:53.135Z,7.59
2023-01-30T09:17:20.644Z,6.85
2023-01-30T09:19:48.103Z,7.39
2023-01-30T09:22:17.486Z,7.72
2023-01-30T09:24:45.250Z,7.69
2023-01-30T09:27:12.683Z,7.20
2023-01-30T09:29:40.080Z,8.05
2023-01-30T09:32:07.515Z,7.85
2023-01-30T09:34:35.074Z,7.47
2023-01-30T09:37:04.789Z,7.17
2023-01-30T09:39:33.851Z,7.07
2023-01-30T09:42:23.705Z,6.62
2023-01-30T09:45:24.351Z,7.05
2023-01-30T09:48:03.297Z,7.71
2023-01-30T09:50:47.465Z,7.48
2023-01-30T09:53:22.152Z,7.51
2023-01-30T09:55:51.186Z,7.36
2023-01-30T09:58:21.793Z,6.97
2023-01-30T10:00:52.516Z,7.32
2023-01-30T10:03:25.417Z,7.26
2023-01-30T10:05:57.685Z,6.79
2023-01-30T10:08:51.057Z,7.45
2023-01-30T10:11:31.602Z,7.75
2023-01-30T10:14:14.377Z,7.78
2023-01-30T10:16:47.988Z,7.82
2023-01-30T10:19:35.646Z,7.97
2023-01-30T10:22:16.724Z,7.40
2023-01-30T10:24:57.290Z,7.17
2023-01-30T10:27:28.687Z,7.23
2023-01-30T10:29:59.235Z,7.35
2023-01-30T10:32:31.841Z,7.64
2023-01-30T10:35:05.506Z,7.97
2023-01-30T10:37:37.680Z,7.32
2023-01-30T10:40:15.440Z,7.51
2023-01-30T10:42:51.586Z,7.26
2023-01-30T10:45:24.460Z,7.06
2023-01-30T10:48:07.854Z,6.94
2023-01-30T10:50:46.356Z,6.97
2023-01-30T10:53:21.588Z,7.19
2023-01-30T10:55:53.785Z,7.18
2023-01-30T10:58:31.717Z,7.09
2023-01-30T11:01:02.051Z,6.77
2023-01-30T11:03:39.048Z,7.05
2023-01-30T11:06:11.671Z,7.40
2023-01-30T11:08:39.203Z,7.94
2023-01-30T11:11:24.535Z,7.58
2023-01-30T11:14:02.003Z,7.85
2023-01-30T11:16:29.999Z,7.58
2023-01-30T11:21:51.796Z,7.87
2023-01-30T11:24:21.893Z,7.71
2023-01-30T11:26:50.410Z,8.12
2023-01-30T11:29:27.132Z,7.30
2023-01-30T11:31:55.616Z,7.33
2023-01-30T11:34:25.329Z,7.95
2023-01-30T11:36:52.895Z,7.66
2023-01-30T11:39:24.010Z,7.71
2023-01-30T11:42:01.887Z,8.10
2023-01-30T11:44:33.173Z,7.95
2023-01-30T11:47:02.804Z,7.67
2023-01-30T11:49:50.812Z,6.87
2023-01-30T11:52:28.943Z,6.52
2023-01-30T11:55:03.244Z,6.27
2023-01-30T11:57:31.005Z,6.02
2023-01-30T12:00:01.713Z,5.89
2023-01-30T12:02:33.143Z,5.87
2023-01-30T12:05:03.022Z,5.97
2023-01-30T12:07:32.488Z,5.56
2023-01-30T12:10:00.600Z,6.02
2023-01-30T12:12:33.994Z,6.17
2023-01-30T12:15:18.094Z,6.18
2023-01-30T12:17:50.306Z,6.34
2023-01-30T12:20:26.087Z,6.43
2023-01-30T12:23:03.012Z,7.15
2023-01-30T12:25:36.089Z,7.07
2023-01-30T12:28:11.984Z,7.06
2023-01-30T12:30:47.319Z,7.18
2023-01-30T12:36:01.199Z,7.92
2023-01-30T12:38:42.313Z,8.18
2023-01-30T12:41:26.948Z,7.91
2023-01-30T12:44:08.369Z,8.28
2023-01-30T12:46:53.704Z,7.79
2023-01-30T12:49:37.703Z,7.74
2023-01-30T12:52:29.899Z,7.55
2023-01-30T12:57:54.729Z,8.21
2023-01-30T13:00:34.548Z,7.91
2023-01-30T13:03:20.221Z,8.13
2023-01-30T13:05:55.181Z,8.39
2023-01-30T13:08:38.498Z,8.36
2023-01-30T13:11:16.479Z,7.41
2023-01-30T13:13:50.371Z,7.59
2023-01-30T13:16:29.128Z,7.41
2023-01-30T13:19:03.688Z,7.62
2023-01-30T13:21:37.750Z,7.53
2023-01-30T13:24:22.173Z,7.35
2023-01-30T13:26:53.622Z,7.54
2023-01-30T13:29:27.141Z,7.58
2023-01-30T13:31:58.031Z,7.56
2023-01-30T13:34:32.727Z,7.97
2023-01-30T13:37:05.109Z,8.48
2023-01-30T13:39:42.353Z,8.20
2023-01-30T13:42:19.036Z,7.69
2023-01-30T13:44:47.108Z,7.57
2023-01-30T13:47:28.925Z,7.01
2023-01-30T13:50:10.090Z,7.17
2023-01-30T13:52:45.659Z,6.66
2023-01-30T13:55:26.271Z,6.78
2023-01-30T13:58:00.545Z,6.70
2023-01-30T14:00:30.994Z,6.59
2023-01-30T14:03:25.004Z,6.09
2023-01-30T14:06:37.870Z,5.96
2023-01-30T14:09:22.685Z,5.92
2023-01-30T14:11:58.413Z,5.86
2023-01-30T14:14:30.229Z,6.20
2023-01-30T14:17:08.758Z,5.97
2023-01-30T14:19:40.663Z,6.39
2023-01-30T14:22:29.383Z,5.85
2023-01-30T14:25:45.929Z,5.99
2023-01-30T14:28:51.918Z,5.79
2023-01-30T14:31:53.674Z,5.80
2023-01-30T14:35:16.923Z,5.76
2023-01-30T14:37:51.246Z,5.79
2023-01-30T14:40:31.580Z,5.52
2023-01-30T14:43:41.728Z,5.69
2023-01-30T14:46:29.068Z,5.67
2023-01-30T14:49:05.026Z,5.51
2023-01-30T14:51:36.692Z,5.47
2023-01-30T14:54:20.574Z,5.49
2023-01-30T14:56:54.086Z,5.23
2023-01-30T14:59:25.961Z,5.25
2023-01-30T15:02:22.326Z,5.30
2023-01-30T15:04:57.195Z,5.25
2023-01-30T15:07:27.697Z,5.71
2023-01-30T15:09:59.887Z,5.36
2023-01-30T15:13:10.459Z,5.36
2023-01-30T15:15:45.947Z,5.30
2023-01-30T15:19:06.631Z,5.38
2023-01-30T15:21:49.451Z,5.48
2023-01-30T15:24:33.448Z,5.56
2023-01-30T15:27:13.042Z,5.78
2023-01-30T15:30:01.754Z,5.79
2023-01-30T15:32:30.921Z,5.69
2023-01-30T15:35:00.534Z,5.37
2023-01-30T15:37:33.758Z,5.47
2023-01-30T15:40:29.701Z,5.38
2023-01-30T15:43:14.132Z,5.65
2023-01-30T15:45:50.228Z,5.66
2023-01-30T15:48:41.062Z,5.67
2023-01-30T15:51:14.139Z,5.69
2023-01-30T15:53:44.346Z,5.52
2023-01-30T15:56:18.473Z,5.63
2023-01-30T15:58:47.614Z,5.60
2023-01-30T16:01:20.457Z,5.47
2023-01-30T16:03:53.252Z,5.52
2023-01-30T16:06:23.687Z,5.73
2023-01-30T16:09:00.438Z,5.73
2023-01-30T16:11:39.630Z,5.63
2023-01-30T16:14:14.381Z,5.78
2023-01-30T16:16:46.072Z,5.81
2023-01-30T16:19:22.695Z,5.86
2023-01-30T16:21:50.548Z,6.10
2023-01-30T16:24:21.378Z,5.95
2023-01-30T16:26:52.406Z,5.68
2023-01-30T16:29:24.029Z,5.89
2023-01-30T16:31:53.723Z,5.73
2023-01-30T16:34:33.621Z,5.77
2023-01-30T16:37:07.710Z,5.72
2023-01-30T16:39:37.005Z,5.75
2023-01-30T16:42:20.923Z,5.42
2023-01-30T16:44:49.616Z,5.48
2023-01-30T16:47:25.111Z,5.65
2023-01-30T16:49:54.016Z,5.62
2023-01-30T16:52:24.082Z,5.74
2023-01-30T16:54:54.085Z,5.71
2023-01-30T16:57:31.683Z,5.61
2023-01-30T17:00:00.898Z,5.63
2023-01-30T17:02:34.345Z,5.64
2023-01-30T17:05:19.510Z,5.70
2023-01-30T17:07:47.778Z,5.87
2023-01-30T17:10:51.322Z,5.79
2023-01-30T17:13:32.212Z,5.80
2023-01-30T17:16:27.190Z,5.74
2023-01-30T17:18:56.438Z,5.56
2023-01-30T17:21:26.374Z,5.62
2023-01-30T17:23:56.947Z,6.01
2023-01-30T17:26:24.649Z,5.76
2023-01-30T17:28:52.162Z,6.01
2023-01-30T17:31:20.332Z,5.70
2023-01-30T17:33:49.163Z,5.69
2023-01-30T17:36:23.993Z,5.84
2023-01-30T17:38:52.023Z,5.71
2023-01-30T17:41:21.409Z,5.74
2023-01-30T17:43:49.853Z,5.73
2023-01-30T17:46:18.400Z,5.73
2023-01-30T17:48:45.934Z,5.68
2023-01-30T17:51:14.701Z,5.74
2023-01-30T17:53:42.629Z,5.75
2023-01-30T17:56:18.648Z,5.77
2023-01-30T17:58:46.213Z,5.84
2023-01-30T18:01:16.057Z,5.97
2023-01-30T18:03:44.927Z,6.00
2023-01-30T18:06:15.442Z,6.09
2023-01-30T18:08:43.567Z,6.03
2023-01-30T18:11:11.959Z,6.08
2023-01-30T18:13:40.474Z,6.09
2023-01-30T18:16:11.217Z,6.02
2023-01-30T18:18:38.622Z,6.05
2023-01-30T18:21:06.414Z,6.04
2023-01-30T18:23:37.025Z,6.16
2023-01-30T18:26:04.815Z,6.10
2023-01-30T18:28:32.328Z,6.23
2023-01-30T18:30:59.872Z,6.34
2023-01-30T18:33:27.470Z,6.27
2023-01-30T18:35:54.828Z,6.29
2023-01-30T18:38:22.427Z,6.42
2023-01-30T18:40:51.185Z,6.35
2023-01-30T18:43:18.576Z,6.50
2023-01-30T18:45:45.964Z,6.32
2023-01-30T18:48:13.361Z,6.23
2023-01-30T18:50:40.760Z,6.36
2023-01-30T18:53:08.507Z,6.22
2023-01-30T18:55:36.193Z,6.35
2023-01-30T18:58:04.932Z,6.34
2023-01-30T19:00:32.337Z,6.30
2023-01-30T19:02:59.813Z,6.25
2023-01-30T19:05:27.339Z,6.35
2023-01-30T19:07:55.551Z,6.35
2023-01-30T19:10:23.030Z,6.27
2023-01-30T19:13:07.826Z,6.26
2023-01-30T19:15:37.346Z,6.26
2023-01-30T19:18:05.124Z,6.40
2023-01-30T19:20:32.542Z,6.29
2023-01-30T19:22:59.948Z,6.56
2023-01-30T19:25:27.551Z,6.16
2023-01-30T19:27:56.430Z,6.18
2023-01-30T19:30:24.404Z,6.39
2023-01-30T19:32:54.296Z,6.20
2023-01-30T19:35:22.059Z,6.09
2023-01-30T19:37:49.623Z,6.08
2023-01-30T19:40:18.012Z,6.16
2023-01-30T19:42:46.564Z,6.11
2023-01-30T19:45:14.948Z,6.26
2023-01-30T19:47:42.432Z,6.23
2023-01-30T19:50:12.384Z,6.21
2023-01-30T19:52:40.779Z,6.30
2023-01-30T19:55:08.918Z,6.18
2023-01-30T19:57:36.554Z,6.04
2023-01-30T20:00:05.142Z,6.07
2023-01-30T20:02:32.602Z,6.03
2023-01-30T20:05:00.045Z,6.03
2023-01-30T20:07:29.831Z,5.94
2023-01-30T20:09:57.245Z,6.01
2023-01-30T20:12:24.682Z,6.10
2023-01-30T20:14:52.092Z,5.90
2023-01-30T20:17:19.519Z,5.96
2023-01-30T20:19:46.933Z,6.13
2023-01-30T20:22:14.398Z,5.95
2023-01-30T20:24:43.199Z,5.93
2023-01-30T20:27:10.613Z,5.98
2023-01-30T20:29:38.026Z,6.05
2023-01-30T20:32:06.124Z,5.97
2023-01-30T20:34:33.595Z,6.11
2023-01-30T20:37:00.978Z,5.97
2023-01-30T20:39:28.458Z,5.95
2023-01-30T20:41:57.206Z,5.94
2023-01-30T20:44:25.743Z,5.90
2023-01-30T20:46:53.199Z,5.80
2023-01-30T20:49:22.138Z,5.81
2023-01-30T20:51:52.293Z,9.71
2023-01-30T20:54:21.553Z,11.29
2023-01-30T20:56:50.900Z,11.98
2023-01-30T20:59:23.909Z,12.42
2023-01-30T21:01:52.135Z,12.20
2023-01-30T21:04:20.866Z,12.64
2023-01-30T21:06:48.329Z,10.52
2023-01-30T21:09:17.522Z,7.16
2023-01-30T21:11:45.314Z,6.38
2023-01-30T21:14:13.331Z,6.15
2023-01-30T21:16:42.429Z,6.21
2023-01-30T21:19:16.484Z,5.99
2023-01-30T21:21:50.595Z,6.31
2023-01-30T21:24:21.427Z,6.61
2023-01-30T21:26:49.201Z,7.09
2023-01-30T21:29:18.936Z,7.29
2023-01-30T21:31:50.605Z,7.03
2023-01-30T21:34:18.220Z,6.80
2023-01-30T21:37:05.638Z,6.40
2023-01-30T21:39:50.847Z,6.51
2023-01-30T21:42:34.753Z,6.52
2023-01-30T21:45:02.384Z,6.35
2023-01-30T21:47:31.241Z,6.45
2023-01-30T21:49:58.654Z,6.79
2023-01-30T21:52:26.188Z,6.87
2023-01-30T21:54:53.610Z,6.15
2023-01-30T21:57:21.023Z,5.65
2023-01-30T21:59:48.457Z,5.79
2023-01-30T22:02:15.966Z,5.84
2023-01-30T22:04:44.700Z,5.72
2023-01-30T22:07:12.093Z,5.82
2023-01-30T22:09:39.801Z,5.59
2023-01-30T22:12:07.598Z,5.81
2023-01-30T22:14:36.345Z,5.43
2023-01-30T22:17:03.921Z,5.41
2023-01-30T22:19:35.668Z,5.59
2023-01-30T22:22:04.985Z,5.35
2023-01-30T22:24:32.424Z,5.13
2023-01-30T22:26:59.930Z,5.10
2023-01-30T22:29:28.974Z,5.27
2023-01-30T22:31:56.425Z,5.33
2023-01-30T22:34:23.896Z,5.56
2023-01-30T22:36:51.729Z,5.34
2023-01-30T22:39:20.468Z,5.27
2023-01-30T22:41:47.874Z,5.21
2023-01-30T22:44:15.269Z,5.11
2023-01-30T22:46:42.860Z,5.30
2023-01-30T22:49:10.955Z,5.22
2023-01-30T22:51:40.924Z,5.41
2023-01-30T22:54:11.001Z,5.09
2023-01-30T22:56:41.591Z,5.03
2023-01-30T22:59:10.485Z,5.16
2023-01-30T23:01:39.559Z,4.98
2023-01-30T23:04:10.824Z,5.14
2023-01-30T23:06:38.569Z,5.19
2023-01-30T23:09:08.693Z,5.01
2023-01-30T23:11:37.979Z,5.06
2023-01-30T23:14:13.280Z,5.10
2023-01-30T23:16:42.887Z,4.83
2023-01-30T23:19:10.886Z,4.87
2023-01-30T23:21:40.678Z,4.94
2023-01-30T23:24:11.265Z,4.99
2023-01-30T23:26:40.831Z,4.94
2023-01-30T23:29:13.204Z,4.94
2023-01-30T23:31:41.740Z,5.26
2023-01-30T23:34:13.399Z,4.94
2023-01-30T23:36:40.901Z,4.93
2023-01-30T23:39:08.456Z,4.90
2023-01-30T23:41:37.566Z,5.07
2023-01-30T23:44:05.350Z,5.06
2023-01-30T23:46:36.458Z,4.85
2023-01-30T23:49:06.410Z,4.84
2023-01-30T23:51:35.719Z,4.88
2023-01-30T23:54:03.419Z,4.81
2023-01-30T23:56:33.099Z,4.78
2023-01-30T23:59:00.812Z,4.66
